Impacts METAR Board
IDs:

KMSP - Minneapolis-St Paul, MN, US

Updated at: 0300 UTC 22 Jun 2018
Potential Impact None Slight Moderate High
Time 21/15Z 21/16Z 21/17Z 21/18Z 21/19Z 21/20Z 21/21Z 21/22Z 21/23Z 22/00Z 22/01Z 22/02Z 22/03Z
Temp70 72 73 74 75 76 77 76 76 77 76 75 74
Dewpt59 59 59 58 59 59 59 59 60 61 61 60 59
Altim29.88 29.88 29.89 29.89 29.90 29.89 29.89 29.89 29.88 29.87 29.88 29.88 29.91
VIS10 10 10 10 10 10 10 10 10 10 10 10 10
CIG150 250 150 170 160 160 160 160 160 250 250 250 250
CoverOVCOVCOVCOVCOVCOVCOVCOVCOVCBKNOVCOVCOVC
FltCatVFRVFRVFRVFRVFRVFRVFRVFRVFRVFRVFRVFRVFR
WX--------------------------
WDir809060709010080801001000200210
WSpd10 11 10 11 9 9 13 7 9 3 0 5 5
WGst-- -- 19 25 -- -- -- -- -- -- -- -- --
Raw hourly METARs
KMSP 211453Z 08010KT 10SM BKN150 OVC200 21/15 A2988 RMK AO2 SLP116 T02110150 51008
KMSP 211553Z 09011KT 10SM FEW150 SCT180 OVC250 22/15 A2988 RMK AO2 SLP116 T02220150
KMSP 211653Z 06010G19KT 10SM BKN150 OVC200 23/15 A2989 RMK AO2 SLP118 T02280150
KMSP 211753Z 07011G25KT 10SM BKN170 OVC250 23/14 A2989 RMK AO2 SLP119 T02330144 10233 20200 53004
KMSP 211853Z 09009KT 10SM FEW035 BKN160 OVC250 24/15 A2990 RMK AO2 SLP119 T02390150
KMSP 211953Z 10009KT 10SM FEW043 BKN160 OVC250 24/15 A2989 RMK AO2 SLP117 T02440150
KMSP 212053Z 08013KT 10SM FEW043 BKN160 OVC250 25/15 A2989 RMK AO2 SLP118 T02500150 55000
KMSP 212153Z 08007KT 10SM FEW043 BKN160 OVC250 24/15 A2989 RMK AO2 SLP117 TCU DSNT NW T02440150
KMSP 212253Z 10009KT 10SM FEW040 BKN160 OVC250 24/16 A2988 RMK AO2 SLP115 TCU DSNT NE T02440156
KMSP 212353Z 10003KT 10SM FEW045 FEW160 SCT190 BKN250 25/16 A2987 RMK AO2 SLP112 T02500161 10256 20233 58007
KMSP 220053Z 00000KT 10SM FEW045 FEW180 SCT220 OVC250 24/16 A2988 RMK AO2 SLP114 T02440161
KMSP 220153Z 20005KT 10SM FEW045 FEW170 SCT220 OVC250 24/16 A2988 RMK AO2 SLP115 T02390156
KMSP 220253Z 21005KT 10SM FEW043 FEW050 OVC250 23/15 A2991 RMK AO2 SLP124 T02330150 53012



Page loaded:  03:15 UTC  |   08:15 PM Pacific  |   09:15 PM Mountain  |   10:15 PM Central  |   11:15 PM Eastern

 

ADVISORIES

FORECASTS

FORECASTS

OBSERVATIONS

USER TOOLS

ABOUT US